sensor_id;sensor_type;location;lat;lon;timestamp;P1;durP1;ratioP1;P2;durP2;ratioP2
51614;SDS011;37695;52.960;6.188;2023-03-04T00:02:15;14.40;;;2.72;;
51614;SDS011;37695;52.960;6.188;2023-03-04T00:04:40;9.63;;;2.03;;
51614;SDS011;37695;52.960;6.188;2023-03-04T00:07:06;11.68;;;2.10;;
51614;SDS011;37695;52.960;6.188;2023-03-04T00:09:32;12.25;;;2.58;;
51614;SDS011;37695;52.960;6.188;2023-03-04T00:11:57;7.65;;;2.20;;
51614;SDS011;37695;52.960;6.188;2023-03-04T00:14:23;10.98;;;2.10;;
51614;SDS011;37695;52.960;6.188;2023-03-04T00:16:48;13.32;;;2.65;;
51614;SDS011;37695;52.960;6.188;2023-03-04T00:19:14;13.43;;;2.75;;
51614;SDS011;37695;52.960;6.188;2023-03-04T00:21:39;10.15;;;2.08;;
51614;SDS011;37695;52.960;6.188;2023-03-04T00:24:05;12.00;;;2.80;;
51614;SDS011;37695;52.960;6.188;2023-03-04T00:26:31;11.77;;;2.30;;
51614;SDS011;37695;52.960;6.188;2023-03-04T00:28:56;13.00;;;2.45;;
51614;SDS011;37695;52.960;6.188;2023-03-04T00:31:22;13.07;;;5.20;;
51614;SDS011;37695;52.960;6.188;2023-03-04T00:33:48;10.35;;;2.45;;
51614;SDS011;37695;52.960;6.188;2023-03-04T00:36:13;9.27;;;2.30;;
51614;SDS011;37695;52.960;6.188;2023-03-04T00:38:39;10.55;;;2.38;;
51614;SDS011;37695;52.960;6.188;2023-03-04T00:41:04;11.27;;;2.83;;
51614;SDS011;37695;52.960;6.188;2023-03-04T00:43:30;15.30;;;3.08;;
51614;SDS011;37695;52.960;6.188;2023-03-04T00:45:56;12.85;;;2.28;;
51614;SDS011;37695;52.960;6.188;2023-03-04T00:48:21;11.73;;;2.88;;
51614;SDS011;37695;52.960;6.188;2023-03-04T00:50:47;8.05;;;2.25;;
51614;SDS011;37695;52.960;6.188;2023-03-04T00:53:17;6.65;;;1.85;;
51614;SDS011;37695;52.960;6.188;2023-03-04T00:55:43;11.27;;;2.25;;
51614;SDS011;37695;52.960;6.188;2023-03-04T00:58:09;11.57;;;2.20;;
51614;SDS011;37695;52.960;6.188;2023-03-04T01:00:34;9.50;;;2.38;;
51614;SDS011;37695;52.960;6.188;2023-03-04T01:03:00;8.02;;;2.08;;
51614;SDS011;37695;52.960;6.188;2023-03-04T01:05:26;8.77;;;2.05;;
51614;SDS011;37695;52.960;6.188;2023-03-04T01:07:51;11.95;;;2.08;;
51614;SDS011;37695;52.960;6.188;2023-03-04T01:10:17;8.48;;;2.00;;
51614;SDS011;37695;52.960;6.188;2023-03-04T01:12:43;10.73;;;2.13;;
51614;SDS011;37695;52.960;6.188;2023-03-04T01:15:09;11.55;;;2.80;;
51614;SDS011;37695;52.960;6.188;2023-03-04T01:17:36;9.15;;;2.20;;
51614;SDS011;37695;52.960;6.188;2023-03-04T01:20:03;11.90;;;2.00;;
51614;SDS011;37695;52.960;6.188;2023-03-04T01:22:29;8.20;;;1.70;;
51614;SDS011;37695;52.960;6.188;2023-03-04T01:24:55;9.40;;;2.47;;
51614;SDS011;37695;52.960;6.188;2023-03-04T01:27:20;12.07;;;3.17;;
51614;SDS011;37695;52.960;6.188;2023-03-04T01:29:46;13.07;;;2.40;;
51614;SDS011;37695;52.960;6.188;2023-03-04T01:32:11;9.15;;;1.85;;
51614;SDS011;37695;52.960;6.188;2023-03-04T01:34:37;9.18;;;2.20;;
51614;SDS011;37695;52.960;6.188;2023-03-04T01:37:02;6.25;;;1.77;;
51614;SDS011;37695;52.960;6.188;2023-03-04T01:39:28;6.18;;;1.70;;
51614;SDS011;37695;52.960;6.188;2023-03-04T01:41:54;12.10;;;2.25;;
51614;SDS011;37695;52.960;6.188;2023-03-04T01:44:20;12.65;;;2.58;;
51614;SDS011;37695;52.960;6.188;2023-03-04T01:46:46;8.43;;;2.05;;
51614;SDS011;37695;52.960;6.188;2023-03-04T01:49:14;10.40;;;1.92;;
51614;SDS011;37695;52.960;6.188;2023-03-04T01:51:45;9.75;;;2.10;;
51614;SDS011;37695;52.960;6.188;2023-03-04T01:54:14;6.38;;;1.55;;
51614;SDS011;37695;52.960;6.188;2023-03-04T01:56:42;8.05;;;1.80;;
51614;SDS011;37695;52.960;6.188;2023-03-04T01:59:14;8.45;;;2.25;;
51614;SDS011;37695;52.960;6.188;2023-03-04T02:01:45;9.18;;;2.08;;
51614;SDS011;37695;52.960;6.188;2023-03-04T02:04:23;10.65;;;2.00;;
51614;SDS011;37695;52.960;6.188;2023-03-04T02:06:50;8.52;;;2.40;;
51614;SDS011;37695;52.960;6.188;2023-03-04T02:09:16;6.10;;;1.70;;
51614;SDS011;37695;52.960;6.188;2023-03-04T02:11:43;8.07;;;1.73;;
51614;SDS011;37695;52.960;6.188;2023-03-04T02:14:10;7.47;;;2.17;;
51614;SDS011;37695;52.960;6.188;2023-03-04T02:16:37;8.07;;;1.67;;
51614;SDS011;37695;52.960;6.188;2023-03-04T02:19:06;9.07;;;1.85;;
51614;SDS011;37695;52.960;6.188;2023-03-04T02:21:39;10.52;;;2.13;;
51614;SDS011;37695;52.960;6.188;2023-03-04T02:27:07;7.53;;;1.80;;
51614;SDS011;37695;52.960;6.188;2023-03-04T02:29:33;10.15;;;2.97;;
51614;SDS011;37695;52.960;6.188;2023-03-04T02:31:59;10.38;;;2.17;;
51614;SDS011;37695;52.960;6.188;2023-03-04T02:34:28;9.75;;;2.03;;
51614;SDS011;37695;52.960;6.188;2023-03-04T02:36:57;8.48;;;2.10;;
51614;SDS011;37695;52.960;6.188;2023-03-04T02:39:30;9.55;;;2.08;;
51614;SDS011;37695;52.960;6.188;2023-03-04T02:41:58;8.90;;;2.47;;
51614;SDS011;37695;52.960;6.188;2023-03-04T02:44:26;8.23;;;2.10;;
51614;SDS011;37695;52.960;6.188;2023-03-04T02:46:58;6.32;;;1.58;;
51614;SDS011;37695;52.960;6.188;2023-03-04T02:49:25;9.15;;;1.92;;
51614;SDS011;37695;52.960;6.188;2023-03-04T02:51:57;6.50;;;1.80;;
51614;SDS011;37695;52.960;6.188;2023-03-04T02:54:33;8.20;;;2.40;;
51614;SDS011;37695;52.960;6.188;2023-03-04T02:57:00;7.63;;;1.98;;
51614;SDS011;37695;52.960;6.188;2023-03-04T02:59:28;6.30;;;1.60;;
51614;SDS011;37695;52.960;6.188;2023-03-04T03:01:54;7.57;;;2.00;;
51614;SDS011;37695;52.960;6.188;2023-03-04T03:04:21;5.57;;;1.77;;
51614;SDS011;37695;52.960;6.188;2023-03-04T03:06:47;8.90;;;1.95;;
51614;SDS011;37695;52.960;6.188;2023-03-04T03:09:13;6.90;;;1.85;;
51614;SDS011;37695;52.960;6.188;2023-03-04T03:11:39;8.27;;;1.85;;
51614;SDS011;37695;52.960;6.188;2023-03-04T03:14:04;7.05;;;1.55;;
51614;SDS011;37695;52.960;6.188;2023-03-04T03:16:30;14.52;;;3.17;;
51614;SDS011;37695;52.960;6.188;2023-03-04T03:18:56;10.80;;;1.95;;
51614;SDS011;37695;52.960;6.188;2023-03-04T03:21:21;7.63;;;1.70;;
51614;SDS011;37695;52.960;6.188;2023-03-04T03:23:47;9.10;;;1.95;;
51614;SDS011;37695;52.960;6.188;2023-03-04T03:26:13;10.20;;;2.08;;
51614;SDS011;37695;52.960;6.188;2023-03-04T03:28:39;8.93;;;2.13;;
51614;SDS011;37695;52.960;6.188;2023-03-04T03:31:04;7.90;;;2.13;;
51614;SDS011;37695;52.960;6.188;2023-03-04T03:33:30;14.45;;;2.47;;
51614;SDS011;37695;52.960;6.188;2023-03-04T03:35:56;9.52;;;2.33;;
51614;SDS011;37695;52.960;6.188;2023-03-04T03:38:22;11.50;;;2.22;;
51614;SDS011;37695;52.960;6.188;2023-03-04T03:40:47;12.60;;;2.13;;
51614;SDS011;37695;52.960;6.188;2023-03-04T03:43:13;9.32;;;1.95;;
51614;SDS011;37695;52.960;6.188;2023-03-04T03:45:38;10.10;;;3.05;;
51614;SDS011;37695;52.960;6.188;2023-03-04T03:48:04;8.30;;;2.08;;
51614;SDS011;37695;52.960;6.188;2023-03-04T03:50:30;7.72;;;1.42;;
51614;SDS011;37695;52.960;6.188;2023-03-04T03:52:55;11.30;;;2.13;;
51614;SDS011;37695;52.960;6.188;2023-03-04T03:55:21;8.32;;;2.13;;
51614;SDS011;37695;52.960;6.188;2023-03-04T03:57:47;8.88;;;2.08;;
51614;SDS011;37695;52.960;6.188;2023-03-04T04:00:12;6.78;;;2.05;;
51614;SDS011;37695;52.960;6.188;2023-03-04T04:02:39;5.57;;;1.67;;
51614;SDS011;37695;52.960;6.188;2023-03-04T04:05:05;5.32;;;1.70;;
51614;SDS011;37695;52.960;6.188;2023-03-04T04:07:32;10.93;;;2.10;;
51614;SDS011;37695;52.960;6.188;2023-03-04T04:09:57;7.95;;;2.30;;
51614;SDS011;37695;52.960;6.188;2023-03-04T04:12:23;8.60;;;1.85;;
51614;SDS011;37695;52.960;6.188;2023-03-04T04:14:49;7.60;;;1.83;;
51614;SDS011;37695;52.960;6.188;2023-03-04T04:17:15;10.18;;;2.38;;
51614;SDS011;37695;52.960;6.188;2023-03-04T04:19:40;6.82;;;1.65;;
51614;SDS011;37695;52.960;6.188;2023-03-04T04:22:07;10.50;;;2.28;;
51614;SDS011;37695;52.960;6.188;2023-03-04T04:24:36;8.93;;;2.17;;
51614;SDS011;37695;52.960;6.188;2023-03-04T04:27:02;9.65;;;1.83;;
51614;SDS011;37695;52.960;6.188;2023-03-04T04:29:28;7.13;;;1.95;;
51614;SDS011;37695;52.960;6.188;2023-03-04T04:31:54;6.72;;;1.58;;
51614;SDS011;37695;52.960;6.188;2023-03-04T04:34:19;9.10;;;2.10;;
51614;SDS011;37695;52.960;6.188;2023-03-04T04:36:45;13.65;;;2.38;;
51614;SDS011;37695;52.960;6.188;2023-03-04T04:39:11;7.85;;;1.80;;
51614;SDS011;37695;52.960;6.188;2023-03-04T04:41:38;9.43;;;1.98;;
51614;SDS011;37695;52.960;6.188;2023-03-04T04:44:04;5.25;;;1.80;;
51614;SDS011;37695;52.960;6.188;2023-03-04T04:46:30;6.47;;;1.50;;
51614;SDS011;37695;52.960;6.188;2023-03-04T04:48:56;7.80;;;2.20;;
51614;SDS011;37695;52.960;6.188;2023-03-04T04:51:21;7.57;;;1.70;;
51614;SDS011;37695;52.960;6.188;2023-03-04T04:53:47;6.28;;;1.40;;
51614;SDS011;37695;52.960;6.188;2023-03-04T04:56:17;7.35;;;1.65;;
51614;SDS011;37695;52.960;6.188;2023-03-04T04:58:45;7.93;;;1.83;;
51614;SDS011;37695;52.960;6.188;2023-03-04T05:01:11;5.93;;;1.58;;
51614;SDS011;37695;52.960;6.188;2023-03-04T05:03:38;6.53;;;1.52;;
51614;SDS011;37695;52.960;6.188;2023-03-04T05:06:05;9.38;;;1.90;;
51614;SDS011;37695;52.960;6.188;2023-03-04T05:08:32;6.32;;;1.30;;
51614;SDS011;37695;52.960;6.188;2023-03-04T05:10:58;4.55;;;1.60;;
51614;SDS011;37695;52.960;6.188;2023-03-04T05:13:24;5.82;;;1.83;;
51614;SDS011;37695;52.960;6.188;2023-03-04T05:15:50;6.85;;;1.52;;
51614;SDS011;37695;52.960;6.188;2023-03-04T05:18:17;4.63;;;1.40;;
51614;SDS011;37695;52.960;6.188;2023-03-04T05:20:43;5.50;;;1.73;;
51614;SDS011;37695;52.960;6.188;2023-03-04T05:23:09;8.27;;;1.45;;
51614;SDS011;37695;52.960;6.188;2023-03-04T05:25:34;8.18;;;1.60;;
51614;SDS011;37695;52.960;6.188;2023-03-04T05:28:00;4.78;;;1.50;;
51614;SDS011;37695;52.960;6.188;2023-03-04T05:30:26;4.47;;;1.30;;
51614;SDS011;37695;52.960;6.188;2023-03-04T05:32:52;5.53;;;1.42;;
51614;SDS011;37695;52.960;6.188;2023-03-04T05:35:17;5.90;;;1.40;;
51614;SDS011;37695;52.960;6.188;2023-03-04T05:37:43;6.22;;;1.67;;
51614;SDS011;37695;52.960;6.188;2023-03-04T05:40:09;7.78;;;1.40;;
51614;SDS011;37695;52.960;6.188;2023-03-04T05:42:35;4.32;;;1.20;;
51614;SDS011;37695;52.960;6.188;2023-03-04T05:45:00;7.38;;;1.88;;
51614;SDS011;37695;52.960;6.188;2023-03-04T05:47:26;4.20;;;1.15;;
51614;SDS011;37695;52.960;6.188;2023-03-04T05:49:51;2.95;;;1.10;;
51614;SDS011;37695;52.960;6.188;2023-03-04T05:52:18;5.07;;;1.25;;
51614;SDS011;37695;52.960;6.188;2023-03-04T05:54:44;5.05;;;1.17;;
51614;SDS011;37695;52.960;6.188;2023-03-04T05:57:09;7.00;;;1.40;;
51614;SDS011;37695;52.960;6.188;2023-03-04T05:59:35;5.78;;;1.52;;
51614;SDS011;37695;52.960;6.188;2023-03-04T06:02:00;4.82;;;1.23;;
51614;SDS011;37695;52.960;6.188;2023-03-04T06:04:26;3.85;;;1.30;;
51614;SDS011;37695;52.960;6.188;2023-03-04T06:06:51;7.55;;;1.23;;
51614;SDS011;37695;52.960;6.188;2023-03-04T06:09:17;8.45;;;1.30;;
51614;SDS011;37695;52.960;6.188;2023-03-04T06:11:45;5.35;;;1.23;;
51614;SDS011;37695;52.960;6.188;2023-03-04T06:14:10;4.10;;;1.60;;
51614;SDS011;37695;52.960;6.188;2023-03-04T06:16:36;3.47;;;1.25;;
51614;SDS011;37695;52.960;6.188;2023-03-04T06:19:02;3.83;;;1.27;;
51614;SDS011;37695;52.960;6.188;2023-03-04T06:21:27;3.80;;;1.15;;
51614;SDS011;37695;52.960;6.188;2023-03-04T06:23:53;4.45;;;1.70;;
51614;SDS011;37695;52.960;6.188;2023-03-04T06:26:18;4.68;;;1.20;;
51614;SDS011;37695;52.960;6.188;2023-03-04T06:28:44;4.70;;;1.10;;
51614;SDS011;37695;52.960;6.188;2023-03-04T06:31:09;4.03;;;1.23;;
51614;SDS011;37695;52.960;6.188;2023-03-04T06:33:35;3.00;;;1.10;;
51614;SDS011;37695;52.960;6.188;2023-03-04T06:36:01;6.20;;;1.60;;
51614;SDS011;37695;52.960;6.188;2023-03-04T06:38:27;4.75;;;1.15;;
51614;SDS011;37695;52.960;6.188;2023-03-04T06:40:52;4.53;;;1.60;;
51614;SDS011;37695;52.960;6.188;2023-03-04T06:43:18;7.13;;;2.55;;
51614;SDS011;37695;52.960;6.188;2023-03-04T06:45:44;4.60;;;1.23;;
51614;SDS011;37695;52.960;6.188;2023-03-04T06:48:10;6.25;;;1.35;;
51614;SDS011;37695;52.960;6.188;2023-03-04T06:50:40;3.95;;;1.20;;
51614;SDS011;37695;52.960;6.188;2023-03-04T06:53:05;3.45;;;1.05;;
51614;SDS011;37695;52.960;6.188;2023-03-04T06:55:31;2.45;;;1.10;;
51614;SDS011;37695;52.960;6.188;2023-03-04T06:57:56;5.05;;;1.30;;
51614;SDS011;37695;52.960;6.188;2023-03-04T07:00:22;3.95;;;1.20;;
51614;SDS011;37695;52.960;6.188;2023-03-04T07:02:50;4.80;;;1.50;;
51614;SDS011;37695;52.960;6.188;2023-03-04T07:05:16;8.05;;;2.17;;
51614;SDS011;37695;52.960;6.188;2023-03-04T07:07:41;6.57;;;1.88;;
51614;SDS011;37695;52.960;6.188;2023-03-04T07:10:07;4.68;;;1.20;;
51614;SDS011;37695;52.960;6.188;2023-03-04T07:12:34;6.35;;;1.50;;
51614;SDS011;37695;52.960;6.188;2023-03-04T07:15:00;7.38;;;1.73;;
51614;SDS011;37695;52.960;6.188;2023-03-04T07:17:26;2.97;;;1.10;;
51614;SDS011;37695;52.960;6.188;2023-03-04T07:19:51;2.70;;;1.15;;
51614;SDS011;37695;52.960;6.188;2023-03-04T07:22:17;5.13;;;1.30;;
51614;SDS011;37695;52.960;6.188;2023-03-04T07:24:43;5.68;;;1.48;;
51614;SDS011;37695;52.960;6.188;2023-03-04T07:27:08;3.70;;;1.30;;
51614;SDS011;37695;52.960;6.188;2023-03-04T07:29:34;3.45;;;1.10;;
51614;SDS011;37695;52.960;6.188;2023-03-04T07:31:59;2.08;;;1.00;;
51614;SDS011;37695;52.960;6.188;2023-03-04T07:34:25;3.33;;;1.17;;
51614;SDS011;37695;52.960;6.188;2023-03-04T07:36:50;5.75;;;1.20;;
51614;SDS011;37695;52.960;6.188;2023-03-04T07:39:17;4.82;;;1.10;;
51614;SDS011;37695;52.960;6.188;2023-03-04T07:41:42;3.72;;;1.38;;
51614;SDS011;37695;52.960;6.188;2023-03-04T07:44:09;5.95;;;1.40;;
51614;SDS011;37695;52.960;6.188;2023-03-04T07:46:36;3.83;;;1.20;;
51614;SDS011;37695;52.960;6.188;2023-03-04T07:49:02;3.13;;;1.27;;
51614;SDS011;37695;52.960;6.188;2023-03-04T07:51:27;4.32;;;1.38;;
51614;SDS011;37695;52.960;6.188;2023-03-04T07:53:55;4.18;;;1.25;;
51614;SDS011;37695;52.960;6.188;2023-03-04T07:56:24;3.20;;;1.30;;
51614;SDS011;37695;52.960;6.188;2023-03-04T07:58:52;4.93;;;1.83;;
51614;SDS011;37695;52.960;6.188;2023-03-04T08:01:22;4.45;;;1.20;;
51614;SDS011;37695;52.960;6.188;2023-03-04T08:06:19;3.17;;;1.00;;
51614;SDS011;37695;52.960;6.188;2023-03-04T08:08:45;5.68;;;1.38;;
51614;SDS011;37695;52.960;6.188;2023-03-04T08:11:13;4.13;;;1.38;;
51614;SDS011;37695;52.960;6.188;2023-03-04T08:13:40;3.72;;;1.48;;
51614;SDS011;37695;52.960;6.188;2023-03-04T08:16:06;6.30;;;1.27;;
51614;SDS011;37695;52.960;6.188;2023-03-04T08:18:33;4.53;;;1.85;;
51614;SDS011;37695;52.960;6.188;2023-03-04T08:20:58;7.45;;;1.90;;
51614;SDS011;37695;52.960;6.188;2023-03-04T08:23:24;6.50;;;1.63;;
51614;SDS011;37695;52.960;6.188;2023-03-04T08:25:50;8.32;;;1.75;;
51614;SDS011;37695;52.960;6.188;2023-03-04T08:28:16;9.95;;;1.73;;
51614;SDS011;37695;52.960;6.188;2023-03-04T08:30:41;10.20;;;1.92;;
51614;SDS011;37695;52.960;6.188;2023-03-04T08:33:08;9.13;;;2.13;;
51614;SDS011;37695;52.960;6.188;2023-03-04T08:35:37;6.55;;;1.70;;
51614;SDS011;37695;52.960;6.188;2023-03-04T08:38:04;10.07;;;2.35;;
51614;SDS011;37695;52.960;6.188;2023-03-04T08:40:29;6.97;;;1.83;;
51614;SDS011;37695;52.960;6.188;2023-03-04T08:42:55;7.03;;;2.92;;
51614;SDS011;37695;52.960;6.188;2023-03-04T08:45:21;8.88;;;2.00;;
51614;SDS011;37695;52.960;6.188;2023-03-04T08:47:46;9.00;;;1.85;;
51614;SDS011;37695;52.960;6.188;2023-03-04T08:50:12;10.30;;;2.67;;
51614;SDS011;37695;52.960;6.188;2023-03-04T08:52:38;9.10;;;2.35;;
51614;SDS011;37695;52.960;6.188;2023-03-04T08:55:03;10.73;;;2.42;;
51614;SDS011;37695;52.960;6.188;2023-03-04T08:57:29;8.07;;;2.00;;
51614;SDS011;37695;52.960;6.188;2023-03-04T08:59:55;11.45;;;2.38;;
51614;SDS011;37695;52.960;6.188;2023-03-04T09:02:20;7.00;;;2.08;;
51614;SDS011;37695;52.960;6.188;2023-03-04T09:04:46;6.90;;;2.28;;
51614;SDS011;37695;52.960;6.188;2023-03-04T09:07:11;14.23;;;2.15;;
51614;SDS011;37695;52.960;6.188;2023-03-04T09:09:38;9.98;;;2.75;;
51614;SDS011;37695;52.960;6.188;2023-03-04T09:12:04;9.15;;;2.30;;
51614;SDS011;37695;52.960;6.188;2023-03-04T09:14:30;8.82;;;2.00;;
51614;SDS011;37695;52.960;6.188;2023-03-04T09:16:56;10.02;;;2.25;;
51614;SDS011;37695;52.960;6.188;2023-03-04T09:19:22;9.10;;;2.10;;
51614;SDS011;37695;52.960;6.188;2023-03-04T09:21:48;8.68;;;2.15;;
51614;SDS011;37695;52.960;6.188;2023-03-04T09:24:13;10.65;;;2.38;;
51614;SDS011;37695;52.960;6.188;2023-03-04T09:26:39;13.52;;;2.42;;
51614;SDS011;37695;52.960;6.188;2023-03-04T09:29:05;7.60;;;2.28;;
51614;SDS011;37695;52.960;6.188;2023-03-04T09:31:30;7.45;;;2.20;;
51614;SDS011;37695;52.960;6.188;2023-03-04T09:33:57;9.82;;;2.38;;
51614;SDS011;37695;52.960;6.188;2023-03-04T09:36:23;8.68;;;2.00;;
51614;SDS011;37695;52.960;6.188;2023-03-04T09:38:49;11.10;;;2.45;;
51614;SDS011;37695;52.960;6.188;2023-03-04T09:41:17;8.68;;;1.90;;
51614;SDS011;37695;52.960;6.188;2023-03-04T09:43:52;10.60;;;2.40;;
51614;SDS011;37695;52.960;6.188;2023-03-04T09:46:31;10.25;;;2.75;;
51614;SDS011;37695;52.960;6.188;2023-03-04T09:49:00;11.98;;;2.60;;
51614;SDS011;37695;52.960;6.188;2023-03-04T09:56:56;12.80;;;2.47;;
51614;SDS011;37695;52.960;6.188;2023-03-04T09:59:43;11.20;;;2.60;;
51614;SDS011;37695;52.960;6.188;2023-03-04T10:05:09;13.18;;;2.63;;
51614;SDS011;37695;52.960;6.188;2023-03-04T10:07:40;9.20;;;2.80;;
51614;SDS011;37695;52.960;6.188;2023-03-04T10:10:18;12.20;;;2.75;;
51614;SDS011;37695;52.960;6.188;2023-03-04T10:12:49;14.68;;;3.00;;
51614;SDS011;37695;52.960;6.188;2023-03-04T10:15:21;23.58;;;3.10;;
51614;SDS011;37695;52.960;6.188;2023-03-04T10:18:02;9.48;;;2.78;;
51614;SDS011;37695;52.960;6.188;2023-03-04T10:20:49;7.20;;;2.08;;
51614;SDS011;37695;52.960;6.188;2023-03-04T10:23:27;8.23;;;1.85;;
51614;SDS011;37695;52.960;6.188;2023-03-04T10:25:55;7.93;;;2.20;;
51614;SDS011;37695;52.960;6.188;2023-03-04T10:28:29;12.23;;;3.00;;
51614;SDS011;37695;52.960;6.188;2023-03-04T10:33:28;7.55;;;2.17;;
51614;SDS011;37695;52.960;6.188;2023-03-04T10:35:59;9.73;;;2.38;;
51614;SDS011;37695;52.960;6.188;2023-03-04T10:38:30;6.70;;;1.80;;
51614;SDS011;37695;52.960;6.188;2023-03-04T10:40:58;6.95;;;2.05;;
51614;SDS011;37695;52.960;6.188;2023-03-04T10:43:24;7.45;;;1.80;;
51614;SDS011;37695;52.960;6.188;2023-03-04T10:45:54;4.95;;;1.55;;
51614;SDS011;37695;52.960;6.188;2023-03-04T10:48:23;6.47;;;1.73;;
51614;SDS011;37695;52.960;6.188;2023-03-04T10:50:51;4.85;;;1.55;;
51614;SDS011;37695;52.960;6.188;2023-03-04T10:53:32;7.47;;;1.48;;
51614;SDS011;37695;52.960;6.188;2023-03-04T10:56:03;4.32;;;1.38;;
51614;SDS011;37695;52.960;6.188;2023-03-04T10:58:34;6.32;;;2.92;;
51614;SDS011;37695;52.960;6.188;2023-03-04T11:01:00;5.57;;;1.60;;
51614;SDS011;37695;52.960;6.188;2023-03-04T11:03:31;5.38;;;1.98;;
51614;SDS011;37695;52.960;6.188;2023-03-04T11:06:16;7.82;;;2.00;;
51614;SDS011;37695;52.960;6.188;2023-03-04T11:08:43;9.95;;;2.13;;
51614;SDS011;37695;52.960;6.188;2023-03-04T11:11:20;6.70;;;2.22;;
51614;SDS011;37695;52.960;6.188;2023-03-04T11:13:51;8.05;;;1.77;;
51614;SDS011;37695;52.960;6.188;2023-03-04T11:16:23;4.07;;;1.75;;
51614;SDS011;37695;52.960;6.188;2023-03-04T11:18:52;8.50;;;1.73;;
51614;SDS011;37695;52.960;6.188;2023-03-04T11:21:21;11.15;;;2.70;;
51614;SDS011;37695;52.960;6.188;2023-03-04T11:24:02;8.85;;;2.83;;
51614;SDS011;37695;52.960;6.188;2023-03-04T11:34:46;5.63;;;1.85;;
51614;SDS011;37695;52.960;6.188;2023-03-04T11:37:36;7.97;;;2.55;;
51614;SDS011;37695;52.960;6.188;2023-03-04T11:40:38;7.75;;;2.80;;
51614;SDS011;37695;52.960;6.188;2023-03-04T11:43:11;9.98;;;3.22;;
51614;SDS011;37695;52.960;6.188;2023-03-04T11:45:47;9.60;;;3.15;;
51614;SDS011;37695;52.960;6.188;2023-03-04T11:56:48;6.82;;;2.00;;
51614;SDS011;37695;52.960;6.188;2023-03-04T11:59:20;10.57;;;2.10;;
51614;SDS011;37695;52.960;6.188;2023-03-04T12:09:52;9.75;;;2.65;;
51614;SDS011;37695;52.960;6.188;2023-03-04T12:15:18;9.50;;;2.50;;
51614;SDS011;37695;52.960;6.188;2023-03-04T12:18:10;13.45;;;2.80;;
51614;SDS011;37695;52.960;6.188;2023-03-04T12:21:19;11.32;;;3.50;;
51614;SDS011;37695;52.960;6.188;2023-03-04T12:23:58;11.60;;;2.90;;
51614;SDS011;37695;52.960;6.188;2023-03-04T12:27:08;12.02;;;3.25;;
51614;SDS011;37695;52.960;6.188;2023-03-04T12:32:53;15.50;;;3.22;;
51614;SDS011;37695;52.960;6.188;2023-03-04T12:35:37;8.90;;;2.65;;
51614;SDS011;37695;52.960;6.188;2023-03-04T12:38:18;5.50;;;1.85;;
51614;SDS011;37695;52.960;6.188;2023-03-04T12:40:54;8.73;;;2.33;;
51614;SDS011;37695;52.960;6.188;2023-03-04T12:43:52;8.43;;;2.17;;
51614;SDS011;37695;52.960;6.188;2023-03-04T12:46:32;9.68;;;2.33;;
51614;SDS011;37695;52.960;6.188;2023-03-04T12:49:36;10.23;;;2.38;;
51614;SDS011;37695;52.960;6.188;2023-03-04T12:52:21;7.82;;;1.80;;
51614;SDS011;37695;52.960;6.188;2023-03-04T12:55:10;10.85;;;2.40;;
51614;SDS011;37695;52.960;6.188;2023-03-04T12:57:39;9.70;;;2.25;;
51614;SDS011;37695;52.960;6.188;2023-03-04T13:05:53;9.70;;;2.63;;
51614;SDS011;37695;52.960;6.188;2023-03-04T13:14:04;9.13;;;2.97;;
51614;SDS011;37695;52.960;6.188;2023-03-04T13:16:49;10.55;;;2.58;;
51614;SDS011;37695;52.960;6.188;2023-03-04T13:22:25;13.43;;;2.70;;
51614;SDS011;37695;52.960;6.188;2023-03-04T13:43:52;8.30;;;1.95;;
51614;SDS011;37695;52.960;6.188;2023-03-04T13:51:17;7.85;;;2.13;;
51614;SDS011;37695;52.960;6.188;2023-03-04T14:01:33;7.60;;;2.08;;
51614;SDS011;37695;52.960;6.188;2023-03-04T14:04:09;6.13;;;1.92;;
51614;SDS011;37695;52.960;6.188;2023-03-04T14:06:41;9.40;;;2.05;;
51614;SDS011;37695;52.960;6.188;2023-03-04T14:09:15;10.27;;;2.17;;
51614;SDS011;37695;52.960;6.188;2023-03-04T14:11:51;17.25;;;2.92;;
51614;SDS011;37695;52.960;6.188;2023-03-04T14:14:32;6.40;;;1.70;;
51614;SDS011;37695;52.960;6.188;2023-03-04T14:17:18;9.82;;;2.28;;
51614;SDS011;37695;52.960;6.188;2023-03-04T14:19:47;7.07;;;2.00;;
51614;SDS011;37695;52.960;6.188;2023-03-04T14:22:21;8.30;;;2.30;;
51614;SDS011;37695;52.960;6.188;2023-03-04T14:27:24;6.93;;;1.83;;
51614;SDS011;37695;52.960;6.188;2023-03-04T14:29:57;9.32;;;2.15;;
51614;SDS011;37695;52.960;6.188;2023-03-04T14:32:24;7.75;;;1.70;;
51614;SDS011;37695;52.960;6.188;2023-03-04T14:34:53;8.82;;;2.33;;
51614;SDS011;37695;52.960;6.188;2023-03-04T14:37:26;9.25;;;2.00;;
51614;SDS011;37695;52.960;6.188;2023-03-04T14:40:01;7.55;;;1.95;;
51614;SDS011;37695;52.960;6.188;2023-03-04T14:42:33;8.75;;;2.20;;
51614;SDS011;37695;52.960;6.188;2023-03-04T14:45:06;9.98;;;2.00;;
51614;SDS011;37695;52.960;6.188;2023-03-04T14:47:39;9.60;;;2.25;;
51614;SDS011;37695;52.960;6.188;2023-03-04T14:50:13;9.25;;;2.58;;
51614;SDS011;37695;52.960;6.188;2023-03-04T14:52:43;10.30;;;2.80;;
51614;SDS011;37695;52.960;6.188;2023-03-04T14:57:39;11.07;;;2.67;;
51614;SDS011;37695;52.960;6.188;2023-03-04T15:00:39;9.93;;;2.60;;
51614;SDS011;37695;52.960;6.188;2023-03-04T15:03:03;11.95;;;2.50;;
51614;SDS011;37695;52.960;6.188;2023-03-04T15:05:42;8.80;;;2.30;;
51614;SDS011;37695;52.960;6.188;2023-03-04T15:08:17;10.68;;;2.42;;
51614;SDS011;37695;52.960;6.188;2023-03-04T15:10:53;8.57;;;2.33;;
51614;SDS011;37695;52.960;6.188;2023-03-04T15:13:40;10.95;;;2.42;;
51614;SDS011;37695;52.960;6.188;2023-03-04T15:16:11;10.05;;;2.50;;
51614;SDS011;37695;52.960;6.188;2023-03-04T15:18:38;14.15;;;2.55;;
51614;SDS011;37695;52.960;6.188;2023-03-04T15:24:04;8.95;;;2.58;;
51614;SDS011;37695;52.960;6.188;2023-03-04T15:26:33;11.73;;;3.05;;
51614;SDS011;37695;52.960;6.188;2023-03-04T15:29:05;8.52;;;2.40;;
51614;SDS011;37695;52.960;6.188;2023-03-04T15:31:40;7.22;;;2.13;;
51614;SDS011;37695;52.960;6.188;2023-03-04T15:34:11;7.97;;;1.90;;
51614;SDS011;37695;52.960;6.188;2023-03-04T15:36:38;8.48;;;2.25;;
51614;SDS011;37695;52.960;6.188;2023-03-04T15:39:04;8.65;;;2.63;;
51614;SDS011;37695;52.960;6.188;2023-03-04T15:41:29;10.27;;;2.67;;
51614;SDS011;37695;52.960;6.188;2023-03-04T15:43:55;11.10;;;2.92;;
51614;SDS011;37695;52.960;6.188;2023-03-04T15:46:21;10.65;;;2.70;;
51614;SDS011;37695;52.960;6.188;2023-03-04T15:48:47;8.90;;;2.75;;
51614;SDS011;37695;52.960;6.188;2023-03-04T15:51:15;11.80;;;3.42;;
51614;SDS011;37695;52.960;6.188;2023-03-04T15:53:44;11.35;;;2.95;;
51614;SDS011;37695;52.960;6.188;2023-03-04T15:56:16;10.02;;;2.90;;
51614;SDS011;37695;52.960;6.188;2023-03-04T15:58:45;7.88;;;2.50;;
51614;SDS011;37695;52.960;6.188;2023-03-04T16:01:16;7.07;;;2.15;;
51614;SDS011;37695;52.960;6.188;2023-03-04T16:03:42;11.00;;;3.35;;
51614;SDS011;37695;52.960;6.188;2023-03-04T16:06:09;8.95;;;2.58;;
51614;SDS011;37695;52.960;6.188;2023-03-04T16:08:36;10.48;;;3.28;;
51614;SDS011;37695;52.960;6.188;2023-03-04T16:11:02;8.38;;;2.88;;
51614;SDS011;37695;52.960;6.188;2023-03-04T16:13:28;15.65;;;3.33;;
51614;SDS011;37695;52.960;6.188;2023-03-04T16:15:54;13.80;;;2.83;;
51614;SDS011;37695;52.960;6.188;2023-03-04T16:18:19;8.80;;;2.50;;
51614;SDS011;37695;52.960;6.188;2023-03-04T16:20:46;11.80;;;2.70;;
51614;SDS011;37695;52.960;6.188;2023-03-04T16:23:15;7.75;;;2.30;;
51614;SDS011;37695;52.960;6.188;2023-03-04T16:25:46;12.18;;;2.60;;
51614;SDS011;37695;52.960;6.188;2023-03-04T16:28:14;5.70;;;2.10;;
51614;SDS011;37695;52.960;6.188;2023-03-04T16:30:40;9.88;;;2.40;;
51614;SDS011;37695;52.960;6.188;2023-03-04T16:33:06;5.95;;;1.98;;
51614;SDS011;37695;52.960;6.188;2023-03-04T16:35:32;7.47;;;2.47;;